
| Date | Time(Z) | source | heard | level | error | dti | name | symbol | latitude | longitude | speed | course | altitude | frequency | offset | tone | system | status | telemetry | comment |
| 2025-10-10 | 18:43:13 | 2E0JML | 2E0JML | 75(12/8) | 0 | ` | 2E0JML | /m | 53.450000 | -1.227500 | 56.0 | 54.0 | | | | | UNKNOWN vendor/model | Off Duty | | ! |
| 2025-10-10 | 19:38:54 | 2E0JML | MB7UHT | 70(7/8) | 0 | } | 2E0JML | /m | 54.111000 | -1.414833 | 54.0 | 6.0 | | | | | UNKNOWN vendor/model | Off Duty | | _|||||___ |
| 2025-10-10 | 19:52:59 | 2E0JML | 2E0JML | 75(11/8) | 0 | ` | 2E0JML | /m | 54.306167 | -1.571333 | 44.0 | 343.0 | | | | | UNKNOWN vendor/model | Off Duty | | $ |
| 2025-10-10 | 19:53:31 | 2E0JML | 2E0JML | 75(8/8) | 0 | ` | 2E0JML | /m | 54.309333 | -1.572500 | 7.0 | 268.0 | | | | | UNKNOWN vendor/model | Off Duty | | ) |
| 2025-10-10 | 19:55:20 | 2E0JML | 2E0JML | 75(7/11) | 0 | ` | 2E0JML | /m | 54.299667 | -1.568333 | 10.0 | 300.0 | | | | | UNKNOWN vendor/model | Off Duty | | |
| 2025-10-10 | 20:36:30 | 2E0JML | 2E0JML | 75(10/15) | 0 | ` | 2E0JML | /m | 54.417000 | -1.662667 | 58.0 | 351.0 | | | | | UNKNOWN vendor/model | Off Duty | | ! |
| 2025-10-10 | 20:38:35 | 2E0JML | 2E0JML | 75(8/9) | 0 | ` | 2E0JML | /m | 54.449000 | -1.668333 | 58.0 | 358.0 | | | | | UNKNOWN vendor/model | Off Duty | | ) |
| 2025-10-10 | 20:39:56 | 2E0JML | 2E0JML | 75(8/9) | 0 | ` | 2E0JML | /m | 54.470667 | -1.663667 | 55.0 | 33.0 | | | | | UNKNOWN vendor/model | Off Duty | | ) |
| 2025-10-10 | 20:49:13 | 2E0JML | 2E0JML | 75(8/10) | 0 | ` | 2E0JML | /m | 54.599667 | -1.539500 | 63.0 | 19.0 | | | | | UNKNOWN vendor/model | Off Duty | | ! |
| 2025-10-10 | 20:51:13 | 2E0JML | 2E0JML | 75(8/13) | 0 | ` | 2E0JML | /m | 54.630833 | -1.524167 | 59.0 | 16.0 | | | | | UNKNOWN vendor/model | Off Duty | | ) |
| 2025-10-10 | 20:53:50 | 2E0JML | 2E0JML | 75(7/11) | 0 | ` | 2E0JML | /m | 54.665167 | -1.498833 | 57.0 | 2.0 | | | | | UNKNOWN vendor/model | Off Duty | | |
| 2025-10-10 | 20:56:35 | 2E0JML | 2E0JML | 75(8/8) | 0 | ` | 2E0JML | /m | 54.706000 | -1.504000 | 56.0 | 323.0 | | | | | UNKNOWN vendor/model | Off Duty | | ! |
| 2025-10-10 | 21:15:36 | 2E0JML | 2E0JML | 75(7/12) | 0 | ` | 2E0JML | /m | 54.874500 | -1.618667 | 50.0 | 252.0 | | | | | UNKNOWN vendor/model | Off Duty | | |
| 2025-10-10 | 21:20:07 | 2E0JML | 2E0JML | 75(10/9) | 0 | ` | 2E0JML | /m | 54.873833 | -1.671667 | 6.0 | 10.0 | | | | | UNKNOWN vendor/model | Off Duty | | ! |
| 2025-10-10 | 21:20:40 | 2E0JML | 2E0JML | 75(12/7) | 0 | ` | 2E0JML | /m | 54.873333 | -1.668667 | 28.0 | 89.0 | | | | | UNKNOWN vendor/model | Off Duty | | ) |
| 2025-10-11 | 13:54:47 | 2E0JML | 2E0JML | 75(7/8) | 0 | ` | 2E0JML | /m | 54.870667 | -1.641000 | 0.0 | | | | | | UNKNOWN vendor/model | Off Duty | | ) |
| 2025-10-11 | 13:59:00 | 2E0JML | 2E0JML | 75(9/7) | 0 | ` | 2E0JML | /m | 54.870667 | -1.641667 | 5.0 | 234.0 | | | | | UNKNOWN vendor/model | Off Duty | | ! |
| 2025-10-11 | 14:01:09 | 2E0JML | 2E0JML | 75(8/7) | 0 | ` | 2E0JML | /m | 54.872667 | -1.627167 | 11.0 | 34.0 | | | | | UNKNOWN vendor/model | Off Duty | | ) |
| 2025-10-11 | 14:01:43 | 2E0JML | 2E0JML | 74(12/9) | 0 | ` | 2E0JML | /m | 54.874667 | -1.618333 | 49.0 | 69.0 | | | | | UNKNOWN vendor/model | Off Duty | | |
| 2025-10-11 | 14:06:31 | 2E0JML | 2E0JML | 75(8/11) | 0 | ` | 2E0JML | /m | 54.865000 | -1.560667 | 35.0 | 136.0 | | | | | UNKNOWN vendor/model | Off Duty | | ! |
| 2025-10-12 | 15:24:27 | 2E0JML | 2E0JML | 75(8/9) | 0 | ` | 2E0JML | /m | 54.873000 | -1.596500 | 51.0 | 120.0 | | | | | UNKNOWN vendor/model | Off Duty | | |
| 2025-10-12 | 15:34:11 | 2E0JML | 2E0JML | 74(9/8) | 0 | ` | 2E0JML | /m | 54.884833 | -1.549500 | 20.0 | | | | | | UNKNOWN vendor/model | Off Duty | | |
| 2025-10-12 | 15:37:38 | 2E0JML | 2E0JML | 75(13/10) | 0 | ` | 2E0JML | /m | 54.902000 | -1.539333 | 12.0 | 6.0 | | | | | UNKNOWN vendor/model | Off Duty | | ! |
| 2025-10-12 | 15:42:04 | 2E0JML | 2E0JML | 75(8/8) | 0 | ` | 2E0JML | /m | 54.909333 | -1.462167 | 16.0 | 28.0 | | | | | UNKNOWN vendor/model | Off Duty | | ! |
| 2025-10-12 | 15:56:08 | 2E0JML | 2E0JML | 75(13/8) | 0 | ` | 2E0JML | /m | 54.763667 | -1.355500 | 19.0 | 112.0 | | | | | UNKNOWN vendor/model | Off Duty | | * |
| 2025-10-12 | 16:40:53 | 2E0JML | 2E0JML | 74(7/7) | 0 | ` | 2E0JML | /m | 54.749667 | -1.356667 | 15.0 | 263.0 | | | | | UNKNOWN vendor/model | Off Duty | | + |
| 2025-10-12 | 16:55:59 | 2E0JML | 2E0JML | 74(8/12) | 0 | ` | 2E0JML | /m | 54.573167 | -1.269500 | 40.0 | 166.0 | | | | | UNKNOWN vendor/model | Off Duty | | ! |
| 2025-10-12 | 16:57:31 | 2E0JML | 2E0JML | 74(12/7) | 0 | ` | 2E0JML | /m | 54.554167 | -1.270500 | 57.0 | 198.0 | | | | | UNKNOWN vendor/model | Off Duty | | ! |
| 2025-10-12 | 16:59:40 | 2E0JML | 2E0JML | 74(12/8) | 0 | ` | 2E0JML | /m | 54.522500 | -1.279833 | 59.0 | 177.0 | | | | | UNKNOWN vendor/model | Off Duty | | ) |
| 2025-10-12 | 17:02:21 | 2E0JML | 2E0JML | 75(12/10) | 0 | ` | 2E0JML | /m | 54.483667 | -1.307333 | 57.0 | 223.0 | | | | | UNKNOWN vendor/model | Off Duty | | ) |
| 2025-10-12 | 17:03:36 | 2E0JML | 2E0JML | 74(8/8) | 0 | ` | 2E0JML | /m | 54.468500 | -1.325333 | 58.0 | 191.0 | | | | | UNKNOWN vendor/model | Off Duty | | ) |
| 2025-10-12 | 17:04:16 | 2E0JML | 2E0JML | 75(8/8) | 0 | ` | 2E0JML | /m | 54.456667 | -1.323667 | 63.0 | 159.0 | | | | | UNKNOWN vendor/model | Off Duty | | ) |
| 2025-10-12 | 17:06:18 | 2E0JML | 2E0JML | 75(8/8) | 0 | ` | 2E0JML | /m | 54.422833 | -1.320000 | 62.0 | 178.0 | | | | | UNKNOWN vendor/model | Off Duty | | ) |
| 2025-10-12 | 17:15:58 | 2E0JML | 2E0JML | 75(8/10) | 0 | ` | 2E0JML | /m | 54.256333 | -1.347833 | 64.0 | 162.0 | | | | | UNKNOWN vendor/model | Off Duty | | |
| 2025-10-12 | 17:29:39 | 2E0JML | 2E0JML | 74(10/9) | 0 | ` | 2E0JML | /m | 54.066833 | -1.391333 | 55.0 | 172.0 | | | | | UNKNOWN vendor/model | Off Duty | | ! |
| 2025-10-24 | 19:16:56 | 2E0JML | 2E0JML | 75(10/12) | 0 | ` | 2E0JML | /m | 54.464333 | -1.668333 | 54.0 | 10.0 | | | | | UNKNOWN vendor/model | Off Duty | | |
| 2025-10-24 | 19:25:52 | 2E0JML | 2E0JML | 75(9/10) | 0 | ` | 2E0JML | /m | 54.572000 | -1.575833 | 50.0 | 36.0 | | | | | UNKNOWN vendor/model | Off Duty | | + |
| 2025-10-24 | 19:28:20 | 2E0JML | 2E0JML | 75(8/10) | 0 | ` | 2E0JML | /m | 54.601167 | -1.538667 | 56.0 | 16.0 | | | | | UNKNOWN vendor/model | Off Duty | | ! |
| 2025-10-24 | 19:35:31 | 2E0JML | 2E0JML | 75(11/8) | 0 | ` | 2E0JML | /m | 54.694333 | -1.498667 | 47.0 | 4.0 | | | | | UNKNOWN vendor/model | Off Duty | | |
| 2025-10-24 | 19:36:16 | 2E0JML | 2E0JML | 74(8/10) | 0 | ` | 2E0JML | /m | 54.704167 | -1.502000 | 49.0 | 331.0 | | | | | UNKNOWN vendor/model | Off Duty | | ) |
| 2025-10-24 | 19:38:55 | 2E0JML | 2E0JML | 75(12/10) | 0 | ` | 2E0JML | /m | 54.730000 | -1.521667 | 17.0 | 318.0 | | | | | UNKNOWN vendor/model | Off Duty | | ) |
| 2025-10-24 | 19:39:27 | 2E0JML | 2E0JML | 75(8/10) | 0 | ` | 2E0JML | /m | 54.728333 | -1.523667 | 8.0 | 100.0 | | | | | UNKNOWN vendor/model | Off Duty | | ) |
| 2025-10-24 | 19:40:00 | 2E0JML | 2E0JML | 75(8/7) | 0 | ` | 2E0JML | /m | 54.728667 | -1.522833 | 6.0 | 12.0 | | | | | UNKNOWN vendor/model | Off Duty | | ) |
| 2025-10-24 | 19:40:34 | 2E0JML | 2E0JML | 75(8/8) | 0 | ` | 2E0JML | /m | 54.729333 | -1.523333 | 4.0 | 193.0 | | | | | UNKNOWN vendor/model | Off Duty | | ) |
| 2025-10-24 | 19:59:39 | 2E0JML | 2E0JML | 75(8/13) | 0 | ` | 2E0JML | /m | 54.728333 | -1.523333 | 6.0 | 122.0 | | | | | UNKNOWN vendor/model | Off Duty | | |
| 2025-10-24 | 20:00:13 | 2E0JML | 2E0JML | 75(8/10) | 0 | ` | 2E0JML | /m | 54.728000 | -1.522833 | 15.0 | 314.0 | | | | | UNKNOWN vendor/model | Off Duty | | ) |
| 2025-10-24 | 20:01:16 | 2E0JML | 2E0JML | 75(7/9) | 0 | ` | 2E0JML | /m | 54.727000 | -1.525333 | 29.0 | 21.0 | | | | | UNKNOWN vendor/model | Off Duty | | ) |
| 2025-10-24 | 20:01:55 | 2E0JML | 2E0JML | 75(8/13) | 0 | ` | 2E0JML | /m | 54.731000 | -1.521000 | 25.0 | 63.0 | | | | | UNKNOWN vendor/model | Off Duty | | ) |
| 2025-10-25 | 13:55:35 | 2E0JML | 2E0JML | 75(8/11) | 0 | ` | 2E0JML | /m | 54.872667 | -1.627167 | 11.0 | 16.0 | | | | | UNKNOWN vendor/model | Off Duty | | + |
| 2025-10-25 | 13:56:08 | 2E0JML | 2E0JML | 75(11/8) | 0 | ` | 2E0JML | /m | 54.874500 | -1.619167 | 47.0 | 70.0 | | | | | UNKNOWN vendor/model | Off Duty | | ) |
| 2025-10-25 | 13:59:32 | 2E0JML | 2E0JML | 75(9/9) | 0 | ` | 2E0JML | /m | 54.867167 | -1.572000 | 28.0 | 121.0 | | | | | UNKNOWN vendor/model | Off Duty | | ) |
| 2025-10-25 | 15:53:06 | 2E0JML | 2E0JML | 75(11/8) | 0 | ` | 2E0JML | /m | 54.958333 | -1.615167 | 31.0 | 177.0 | | | | | UNKNOWN vendor/model | Off Duty | | ! |
| 2025-10-25 | 15:58:52 | 2E0JML | 2E0JML | 74(11/8) | 0 | ` | 2E0JML | /m | 54.918500 | -1.599167 | 39.0 | 133.0 | | | | | UNKNOWN vendor/model | Off Duty | | |
| 2025-10-25 | 16:02:19 | 2E0JML | 2E0JML | 75(7/9) | 0 | ` | 2E0JML | /m | 54.890667 | -1.557833 | 11.0 | 117.0 | | | | | UNKNOWN vendor/model | Off Duty | | ) |
| 2025-10-25 | 16:12:53 | 2E0JML | 2E0JML | 75(8/12) | 0 | ` | 2E0JML | /m | 54.890500 | -1.558000 | 0.0 | 345.0 | | | | | UNKNOWN vendor/model | Off Duty | | ! |
| 2025-10-25 | 16:20:29 | 2E0JML | 2E0JML | 75(8/13) | 0 | ` | 2E0JML | /m | 54.890500 | -1.558167 | 2.0 | 69.0 | | | | | UNKNOWN vendor/model | Off Duty | | ! |
| 2025-10-25 | 16:35:18 | 2E0JML | 2E0JML | 75(8/9) | 0 | ` | 2E0JML | /m | 54.890333 | -1.557833 | 0.0 | 337.0 | | | | | UNKNOWN vendor/model | Off Duty | | ! |
| 2025-10-25 | 16:44:51 | 2E0JML | 2E0JML | 75(7/9) | 0 | ` | 2E0JML | /m | 54.890167 | -1.558167 | 5.0 | 179.0 | | | | | UNKNOWN vendor/model | Off Duty | | ! |
| 2025-10-25 | 16:46:17 | 2E0JML | 2E0JML | 75(9/12) | 0 | ` | 2E0JML | /m | 54.878500 | -1.561833 | 52.0 | 212.0 | | | | | UNKNOWN vendor/model | Off Duty | | |
| 2025-10-25 | 16:46:53 | 2E0JML | 2E0JML | 75(11/9) | 0 | ` | 2E0JML | /m | 54.871000 | -1.567333 | 53.0 | 174.0 | | | | | UNKNOWN vendor/model | Off Duty | | ) |
| 2025-10-25 | 16:52:24 | 2E0JML | 2E0JML | 75(8/8) | 0 | ` | 2E0JML | /m | 54.834333 | -1.591167 | 12.0 | 279.0 | | | | | UNKNOWN vendor/model | Off Duty | | ) |
| 2025-10-25 | 16:55:11 | 2E0JML | 2E0JML | 74(10/7) | 0 | ` | 2E0JML | /m | 54.841333 | -1.614167 | 31.0 | 208.0 | | | | | UNKNOWN vendor/model | Off Duty | | ! |
| 2025-10-25 | 16:56:04 | 2E0JML | 2E0JML | 74(7/9) | 0 | ` | 2E0JML | /m | 54.835667 | -1.626500 | 39.0 | 245.0 | | | | | UNKNOWN vendor/model | Off Duty | | + |
| 2025-10-27 | 14:20:07 | 2E0JML | 2E0JML | 75(11/7) | 0 | ` | 2E0JML | /m | 54.841667 | -1.637667 | 39.0 | 309.0 | | | | | UNKNOWN vendor/model | Off Duty | | ) |
| 2025-10-27 | 14:21:00 | 2E0JML | 2E0JML | 75(8/8) | 0 | ` | 2E0JML | /m | 54.850000 | -1.646167 | 46.0 | 348.0 | | | | | UNKNOWN vendor/model | Off Duty | | ) |
| 2025-10-27 | 14:21:47 | 2E0JML | 2E0JML | 75(11/8) | 0 | ` | 2E0JML | /m | 54.854500 | -1.645000 | 11.0 | 48.0 | | | | | UNKNOWN vendor/model | Off Duty | | ) |
| 2025-10-27 | 14:43:10 | 2E0JML | 2E0JML | 74(10/8) | 0 | ` | 2E0JML | /m | 54.863167 | -1.638167 | 0.0 | 303.0 | | | | | UNKNOWN vendor/model | Off Duty | | |
| 2025-10-27 | 15:01:17 | 2E0JML | 2E0JML | 74(7/10) | 0 | ` | 2E0JML | /m | 54.863500 | -1.630500 | 42.0 | 68.0 | | | | | UNKNOWN vendor/model | Off Duty | | + |
| 2025-10-27 | 15:02:36 | 2E0JML | 2E0JML | 75(13/13) | 0 | ` | 2E0JML | /m | 54.870333 | -1.621500 | 24.0 | 70.0 | | | | | UNKNOWN vendor/model | Off Duty | | ) |
| 2025-10-27 | 15:08:56 | 2E0JML | 2E0JML | 75(11/7) | 0 | ` | 2E0JML | /m | 54.869833 | -1.623000 | 12.0 | 192.0 | | | | | UNKNOWN vendor/model | Off Duty | | + |
| 2025-10-27 | 16:44:33 | 2E0JML | 2E0JML | 74(13/9) | 0 | ` | 2E0JML | /m | 54.863000 | -1.638333 | 6.0 | 265.0 | | | | | UNKNOWN vendor/model | Off Duty | | |
| 2025-10-27 | 17:11:45 | 2E0JML | 2E0JML | 74(8/11) | 0 | ` | 2E0JML | /m | 54.863000 | -1.638500 | 13.0 | 220.0 | | | | | UNKNOWN vendor/model | Off Duty | | ! |
| 2025-10-27 | 17:34:53 | 2E0JML | 2E0JML | 75(9/9) | 0 | ` | 2E0JML | /m | 54.863167 | -1.638167 | 0.0 | 178.0 | | | | | UNKNOWN vendor/model | Off Duty | | ! |
| 2025-10-27 | 18:29:00 | 2E0JML | 2E0JML | 74(8/9) | 0 | ` | 2E0JML | /m | 54.862833 | -1.638167 | 5.0 | 194.0 | | | | | UNKNOWN vendor/model | Off Duty | | |
| 2025-10-27 | 19:05:59 | 2E0JML | 2E0JML | 74(8/11) | 0 | ` | 2E0JML | /m | 54.863667 | -1.638333 | 0.0 | 287.0 | | | | | UNKNOWN vendor/model | Off Duty | | ! |
| 2025-10-27 | 19:53:39 | 2E0JML | 2E0JML | 74(7/10) | 0 | ` | 2E0JML | /m | 54.863333 | -1.638167 | 0.0 | 153.0 | | | | | UNKNOWN vendor/model | Off Duty | | ! |
| 2025-10-29 | 12:30:00 | 2E0JML | 2E0JML | 75(7/9) | 0 | ` | 2E0JML | /m | 54.836000 | -1.631333 | 7.0 | 193.0 | | | | | UNKNOWN vendor/model | Off Duty | | + |
| 2025-10-29 | 12:31:38 | 2E0JML | 2E0JML | 75(14/8) | 0 | ` | 2E0JML | /m | 54.832667 | -1.627500 | 40.0 | 156.0 | | | | | UNKNOWN vendor/model | Off Duty | | |
| 2025-10-29 | 12:51:09 | 2E0JML | 2E0JML | 75(8/13) | 0 | ` | 2E0JML | /m | 54.840167 | -1.524333 | 48.0 | 171.0 | | | | | UNKNOWN vendor/model | Off Duty | | |
| 2025-10-29 | 13:01:54 | 2E0JML | 2E0JML | 75(8/9) | 0 | ` | 2E0JML | /m | 54.736500 | -1.515333 | 44.0 | 201.0 | | | | | UNKNOWN vendor/model | Off Duty | | + |
| 2025-10-29 | 13:03:15 | 2E0JML | 2E0JML | 75(8/10) | 0 | ` | 2E0JML | /m | 54.719833 | -1.521000 | 46.0 | 166.0 | | | | | UNKNOWN vendor/model | Off Duty | | |
| 2025-10-29 | 13:05:54 | 2E0JML | 2E0JML | 75(11/14) | 0 | ` | 2E0JML | /m | 54.689833 | -1.499167 | 48.0 | 184.0 | | | | | UNKNOWN vendor/model | Off Duty | | ! |
| 2025-10-29 | 13:08:23 | 2E0JML | 2E0JML | 75(13/8) | 0 | ` | 2E0JML | /m | 54.657000 | -1.504167 | 48.0 | 219.0 | | | | | UNKNOWN vendor/model | Off Duty | | ) |
| 2025-10-29 | 13:13:18 | 2E0JML | 2E0JML | 75(10/12) | 0 | ` | 2E0JML | /m | 54.589500 | -1.551667 | 55.0 | 221.0 | | | | | UNKNOWN vendor/model | Off Duty | | ) |
| 2025-10-29 | 13:15:28 | 2E0JML | 2E0JML | 75(10/8) | 0 | ` | 2E0JML | /m | 54.561500 | -1.588833 | 51.0 | 212.0 | | | | | UNKNOWN vendor/model | Off Duty | | ! |
| 2025-10-29 | 13:19:13 | 2E0JML | 2E0JML | 75(12/9) | 0 | ` | 2E0JML | /m | 54.516000 | -1.621667 | 46.0 | 168.0 | | | | | UNKNOWN vendor/model | Off Duty | | |
| 2025-10-29 | 13:20:02 | 2E0JML | 2E0JML | 75(11/7) | 0 | ` | 2E0JML | /m | 54.505667 | -1.621333 | 49.0 | 204.0 | | | | | UNKNOWN vendor/model | Off Duty | | ) |
| 2025-10-29 | 13:22:30 | 2E0JML | 2E0JML | 75(8/7) | 0 | ` | 2E0JML | /m | 54.479000 | -1.649167 | 45.0 | 226.0 | | | | | UNKNOWN vendor/model | Off Duty | | |
| 2025-10-29 | 13:23:50 | 2E0JML | 2E0JML | 74(8/11) | 0 | ` | 2E0JML | /m | 54.464167 | -1.668167 | 55.0 | 192.0 | | | | | UNKNOWN vendor/model | Off Duty | | ! |
| 2025-10-29 | 13:26:00 | 2E0JML | 2E0JML | 75(10/8) | 0 | ` | 2E0JML | /m | 54.430167 | -1.666667 | 56.0 | 172.0 | | | | | UNKNOWN vendor/model | Off Duty | | ! |
| 2025-10-29 | 13:29:41 | 2E0JML | 2E0JML | 75(10/9) | 0 | ` | 2E0JML | /m | 54.376333 | -1.647667 | 56.0 | 133.0 | | | | | UNKNOWN vendor/model | Off Duty | | + |
| 2025-10-29 | 13:31:49 | 2E0JML | 2E0JML | 74(13/8) | 0 | ` | 2E0JML | /m | 54.351333 | -1.609500 | 58.0 | 146.0 | | | | | UNKNOWN vendor/model | Off Duty | | ) |
| 2025-10-29 | 13:33:55 | 2E0JML | 2E0JML | 75(14/14) | 0 | ` | 2E0JML | /m | 54.323167 | -1.578667 | 56.0 | 147.0 | | | | | UNKNOWN vendor/model | Off Duty | | ) |
| 2025-10-29 | 13:36:54 | 2E0JML | 2E0JML | 75(10/8) | 0 | ` | 2E0JML | /m | 54.283000 | -1.538333 | 41.0 | 95.0 | | | | | UNKNOWN vendor/model | Off Duty | | ! |
| 2025-10-29 | 13:39:32 | 2E0JML | 2E0JML | 75(9/12) | 0 | ` | 2E0JML | /m | 54.244833 | -1.502167 | 57.0 | 155.0 | | | | | UNKNOWN vendor/model | Off Duty | | ) |
| 2026-02-19 | 21:28:39 | 2E0JML | 2E0JML | 75(11/9) | 0 | ` | 2E0JML | /m | 54.364333 | -1.630833 | 46.0 | 317.0 | | | | | UNKNOWN vendor/model | Off Duty | | |
| 2026-02-19 | 21:35:15 | 2E0JML | 2E0JML | 74(11/7) | 0 | ` | 2E0JML | /m | 54.448667 | -1.668500 | 52.0 | 359.0 | | | | | UNKNOWN vendor/model | Off Duty | | ! |
| 2026-02-19 | 21:36:42 | 2E0JML | 2E0JML | 75(7/12) | 0 | ` | 2E0JML | /m | 54.470000 | -1.664333 | 51.0 | 32.0 | | | | | UNKNOWN vendor/model | Off Duty | | ! |
| 2026-02-19 | 21:39:02 | 2E0JML | 2E0JML | 75(9/8) | 0 | ` | 2E0JML | /m | 54.495667 | -1.629833 | 46.0 | 25.0 | | | | | UNKNOWN vendor/model | Off Duty | | ) |
| 2026-02-19 | 21:40:16 | 2E0JML | 2E0JML | 75(8/10) | 0 | ` | 2E0JML | /m | 54.511667 | -1.620167 | 54.0 | 351.0 | | | | | UNKNOWN vendor/model | Off Duty | | ) |
| 2026-02-19 | 21:53:50 | 2E0JML | 2E0JML | 75(10/7) | 0 | ` | 2E0JML | /m | 54.652500 | -1.558000 | 32.0 | 300.0 | | | | | UNKNOWN vendor/model | Off Duty | | ! |
| 2026-02-19 | 21:54:26 | 2E0JML | 2E0JML | 75(14/8) | 0 | ` | 2E0JML | /m | 54.654500 | -1.562833 | 16.0 | 356.0 | | | | | UNKNOWN vendor/model | Off Duty | | ) |
| 2026-02-19 | 21:55:47 | 2E0JML | 2E0JML | 75(7/8) | 0 | ` | 2E0JML | /m | 54.665333 | -1.563333 | 18.0 | 45.0 | | | | | UNKNOWN vendor/model | Off Duty | | ) |
| 2026-02-19 | 21:56:46 | 2E0JML | 2E0JML | 75(10/8) | 0 | ` | 2E0JML | /m | 54.674333 | -1.556833 | 39.0 | 7.0 | | | | | UNKNOWN vendor/model | Off Duty | | ! |
| 2026-02-19 | 21:59:49 | 2E0JML | 2E0JML | 75(8/14) | 0 | ` | 2E0JML | /m | 54.703833 | -1.566500 | 29.0 | 341.0 | | | | | UNKNOWN vendor/model | Off Duty | | ! |
| 2026-02-19 | 22:00:35 | 2E0JML | 2E0JML | 75(8/11) | 0 | ` | 2E0JML | /m | 54.705000 | -1.567500 | 14.0 | 293.0 | | | | | UNKNOWN vendor/model | Off Duty | | ) |
| 2026-02-19 | 22:02:53 | 2E0JML | 2E0JML | 74(12/7) | 0 | ` | 2E0JML | /m | 54.725333 | -1.583667 | 40.0 | 326.0 | | | | | UNKNOWN vendor/model | Off Duty | | |
| 2026-02-19 | 22:05:29 | 2E0JML | 2E0JML | 75(11/8) | 0 | ` | 2E0JML | /m | 54.747167 | -1.589667 | 38.0 | 341.0 | | | | | UNKNOWN vendor/model | Off Duty | | |
| 2026-02-19 | 22:08:39 | 2E0JML | 2E0JML | 75(11/8) | 0 | ` | 2E0JML | /m | 54.771500 | -1.594333 | 0.0 | 347.0 | | | | | UNKNOWN vendor/model | Off Duty | | ! |
| 2026-02-19 | 22:21:51 | 2E0JML | 2E0JML | 75(7/8) | 0 | ` | 2E0JML | /m | 54.837167 | -1.633000 | 0.0 | 10.0 | | | | | UNKNOWN vendor/model | Off Duty | | |
| 2026-02-19 | 22:26:12 | 2E0JML | 2E0JML | 75(13/8) | 0 | ` | 2E0JML | /m | 54.852500 | -1.646667 | 26.0 | 18.0 | | | | | UNKNOWN vendor/model | Off Duty | | ! |
| 2026-02-21 | 15:38:18 | 2E0JML | 2E0JML | 74(7/12) | 0 | ` | 2E0JML | /m | 54.872000 | -1.693667 | 7.0 | 196.0 | | | | | UNKNOWN vendor/model | Off Duty | | |
| 2026-02-21 | 15:38:54 | 2E0JML | 2E0JML | 75(11/9) | 0 | ` | 2E0JML | /m | 54.868333 | -1.696000 | 26.0 | 245.0 | | | | | UNKNOWN vendor/model | Off Duty | | |
| 2026-02-21 | 15:39:54 | 2E0JML | 2E0JML | 75(12/11) | 0 | ` | 2E0JML | /m | 54.867833 | -1.699667 | 6.0 | 129.0 | | | | | UNKNOWN vendor/model | Off Duty | | ) |
| 2026-02-21 | 15:43:07 | 2E0JML | 2E0JML | 75(7/8) | 0 | ` | 2E0JML | /m | 54.869167 | -1.699667 | 6.0 | 143.0 | | | | | UNKNOWN vendor/model | Off Duty | | ) |
| 2026-02-21 | 15:43:39 | 2E0JML | 2E0JML | 75(11/9) | 0 | ` | 2E0JML | /m | 54.868167 | -1.697167 | 26.0 | 88.0 | | | | | UNKNOWN vendor/model | Off Duty | | ! |
| 2026-02-21 | 15:44:44 | 2E0JML | 2E0JML | 75(14/12) | 0 | ` | 2E0JML | /m | 54.871667 | -1.695500 | 7.0 | 116.0 | | | | | UNKNOWN vendor/model | Off Duty | | ) |
| 2026-02-21 | 16:01:38 | 2E0JML | 2E0JML | 75(9/10) | 0 | ` | 2E0JML | /m | 54.871667 | -1.695000 | 0.0 | 169.0 | | | | | UNKNOWN vendor/model | Off Duty | | |
| 2026-02-21 | 17:21:29 | 2E0JML | 2E0JML | 75(8/11) | 0 | ` | 2E0JML | /m | 54.872000 | -1.693500 | 16.0 | 221.0 | | | | | UNKNOWN vendor/model | Off Duty | | |
| 2026-02-21 | 17:22:25 | 2E0JML | 2E0JML | 75(8/8) | 0 | ` | 2E0JML | /m | 54.867833 | -1.698833 | 14.0 | 292.0 | | | | | UNKNOWN vendor/model | Off Duty | | ) |
| 2026-02-21 | 17:30:26 | 2E0JML | 2E0JML | 75(12/9) | 0 | ` | 2E0JML | /m | 54.869500 | -1.694167 | 31.0 | 29.0 | | | | | UNKNOWN vendor/model | Off Duty | | |
| 2026-02-21 | 17:30:57 | 2E0JML | 2E0JML | 75(11/8) | 0 | ` | 2E0JML | /m | 54.872333 | -1.693500 | 24.0 | 82.0 | | | | | UNKNOWN vendor/model | Off Duty | | ) |
| 2026-02-22 | 11:13:29 | 2E0JML | 2E0JML | 75(10/11) | 0 | ` | 2E0JML | /m | 54.872167 | -1.693667 | 16.0 | 212.0 | | | | | UNKNOWN vendor/model | Off Duty | | |
| 2026-02-22 | 11:14:40 | 2E0JML | 2E0JML | 75(7/10) | 0 | ` | 2E0JML | /m | 54.868833 | -1.698000 | 9.0 | 33.0 | | | | | UNKNOWN vendor/model | Off Duty | | |
| 2026-02-22 | 11:31:07 | 2E0JML | 2E0JML | 75(8/10) | 0 | ` | 2E0JML | /m | 54.868667 | -1.696667 | 0.0 | 96.0 | | | | | UNKNOWN vendor/model | Off Duty | | |
| 2026-02-22 | 11:35:18 | 2E0JML | 2E0JML | 75(10/7) | 0 | ` | 2E0JML | /m | 54.868500 | -1.697500 | 5.0 | 284.0 | | | | | UNKNOWN vendor/model | Off Duty | | ) |
| 2026-02-22 | 11:36:53 | 2E0JML | 2E0JML | 75(12/12) | 0 | ` | 2E0JML | /m | 54.872333 | -1.689000 | 25.0 | 99.0 | | | | | UNKNOWN vendor/model | Off Duty | | ! |
| 2026-02-22 | 11:41:19 | 2E0JML | 2E0JML | 75(8/12) | 0 | ` | 2E0JML | /m | 54.866833 | -1.639833 | 24.0 | 182.0 | | | | | UNKNOWN vendor/model | Off Duty | | ) |
| 2026-02-22 | 11:42:08 | 2E0JML | 2E0JML | 75(8/10) | 0 | ` | 2E0JML | /m | 54.862333 | -1.639000 | 4.0 | 91.0 | | | | | UNKNOWN vendor/model | Off Duty | | ) |
| 2026-02-22 | 15:47:51 | 2E0JML | 2E0JML | 75(8/9) | 0 | ` | 2E0JML | /m | 54.863000 | -1.639333 | 7.0 | 346.0 | | | | | UNKNOWN vendor/model | Off Duty | | ! |
| 2026-02-22 | 15:54:16 | 2E0JML | 2E0JML | 75(10/8) | 0 | ` | 2E0JML | /m | 54.872000 | -1.687500 | 2.0 | 352.0 | | | | | UNKNOWN vendor/model | Off Duty | | ) |
| 2026-02-22 | 16:11:24 | 2E0JML | 2E0JML | 75(8/8) | 0 | ` | 2E0JML | /m | 54.872333 | -1.687000 | 17.0 | 87.0 | | | | | UNKNOWN vendor/model | Off Duty | | |
| 2026-02-22 | 16:13:17 | 2E0JML | 2E0JML | 75(14/11) | 0 | ` | 2E0JML | /m | 54.873500 | -1.670333 | 11.0 | 145.0 | | | | | UNKNOWN vendor/model | Off Duty | | ) |
| 2026-02-22 | 16:24:55 | 2E0JML | 2E0JML | 75(8/12) | 0 | ` | 2E0JML | /m | 54.873167 | -1.666833 | 0.0 | 65.0 | | | | | UNKNOWN vendor/model | Off Duty | | ! |
| 2026-02-22 | 16:34:18 | 2E0JML | 2E0JML | 75(11/9) | 0 | ` | 2E0JML | /m | 54.852000 | -1.646833 | 27.0 | 186.0 | | | | | UNKNOWN vendor/model | Off Duty | | |
| 2026-02-22 | 16:44:04 | 2E0JML | 2E0JML | 75(11/8) | 0 | ` | 2E0JML | /m | 54.821500 | -1.630500 | 22.0 | 157.0 | | | | | UNKNOWN vendor/model | Off Duty | | ) |
| 2026-02-22 | 16:45:54 | 2E0JML | 2E0JML | 74(9/8) | 0 | ` | 2E0JML | /m | 54.813000 | -1.620000 | 25.0 | 157.0 | | | | | UNKNOWN vendor/model | Off Duty | | ) |
| 2026-02-22 | 17:00:45 | 2E0JML | 2E0JML | 74(8/11) | 0 | ` | 2E0JML | /m | 54.735000 | -1.526667 | 22.0 | 130.0 | | | | | UNKNOWN vendor/model | Off Duty | | ! |
| 2026-02-22 | 17:01:45 | 2E0JML | 2E0JML | 75(14/8) | 0 | ` | 2E0JML | /m | 54.730167 | -1.518667 | 19.0 | 170.0 | | | | | UNKNOWN vendor/model | Off Duty | | ) |
| 2026-02-22 | 17:03:22 | 2E0JML | 2E0JML | 74(8/8) | 0 | ` | 2E0JML | /m | 54.711833 | -1.513333 | 47.0 | 137.0 | | | | | UNKNOWN vendor/model | Off Duty | | |
| 2026-02-22 | 17:07:01 | 2E0JML | 2E0JML | 75(10/7) | 0 | ` | 2E0JML | /m | 54.664167 | -1.498833 | 51.0 | 183.0 | | | | | UNKNOWN vendor/model | Off Duty | | ! |
| 2026-02-22 | 17:09:57 | 2E0JML | 2E0JML | 74(12/8) | 0 | ` | 2E0JML | /m | 54.625833 | -1.526500 | 48.0 | 195.0 | | | | | UNKNOWN vendor/model | Off Duty | | |
| 2026-02-22 | 17:12:28 | 2E0JML | 2E0JML | 75(8/11) | 0 | ` | 2E0JML | /m | 54.591167 | -1.549167 | 53.0 | 222.0 | | | | | UNKNOWN vendor/model | Off Duty | | ! |
| 2026-02-22 | 17:14:46 | 2E0JML | 2E0JML | 74(8/11) | 0 | ` | 2E0JML | /m | 54.567000 | -1.582167 | 45.0 | 215.0 | | | | | UNKNOWN vendor/model | Off Duty | | ) |
| 2026-02-22 | 17:17:28 | 2E0JML | 2E0JML | 75(12/9) | 0 | ` | 2E0JML | /m | 54.534167 | -1.611667 | 50.0 | 200.0 | | | | | UNKNOWN vendor/model | Off Duty | | ! |
| 2026-02-22 | 17:18:57 | 2E0JML | 2E0JML | 75(7/10) | 0 | ` | 2E0JML | /m | 54.515167 | -1.621333 | 50.0 | 167.0 | | | | | UNKNOWN vendor/model | Off Duty | | ) |
| 2026-02-22 | 17:19:39 | 2E0JML | 2E0JML | 75(11/8) | 0 | ` | 2E0JML | /m | 54.506333 | -1.621000 | 44.0 | 200.0 | | | | | UNKNOWN vendor/model | Off Duty | | ) |
| 2026-02-22 | 17:22:35 | 2E0JML | 2E0JML | 75(9/7) | 0 | ` | 2E0JML | /m | 54.473333 | -1.659333 | 51.0 | 226.0 | | | | | UNKNOWN vendor/model | Off Duty | | |
| 2026-02-22 | 17:23:23 | 2E0JML | 2E0JML | 75(12/7) | 0 | ` | 2E0JML | /m | 54.464333 | -1.668167 | 48.0 | 192.0 | | | | | UNKNOWN vendor/model | Off Duty | | ) |
| 2026-02-22 | 17:25:57 | 2E0JML | 2E0JML | 75(12/12) | 0 | ` | 2E0JML | /m | 54.427167 | -1.666167 | 53.0 | 170.0 | | | | | UNKNOWN vendor/model | Off Duty | | ) |
| 2026-03-27 | 22:16:31 | 2E0JML | 2E0JML | 75(13/10) | 0 | ` | 2E0JML | /m | 54.445500 | -1.668500 | 55.0 | | | | | | UNKNOWN vendor/model | Off Duty | | |
| 2026-03-27 | 22:18:10 | 2E0JML | 2E0JML | 74(11/7) | 0 | ` | 2E0JML | /m | 54.470833 | -1.663667 | 53.0 | 34.0 | | | | | UNKNOWN vendor/model | Off Duty | | ) |
| 2026-03-27 | 22:20:25 | 2E0JML | 2E0JML | 75(9/9) | 0 | ` | 2E0JML | /m | 54.496167 | -1.629667 | 51.0 | 25.0 | | | | | UNKNOWN vendor/model | Off Duty | | ) |
| 2026-03-27 | 22:29:00 | 2E0JML | 2E0JML | 75(7/10) | 0 | ` | 2E0JML | /m | 54.598833 | -1.540000 | 50.0 | 21.0 | | | | | UNKNOWN vendor/model | Off Duty | | |
| 2026-03-27 | 22:33:48 | 2E0JML | 2E0JML | 75(7/12) | 0 | ` | 2E0JML | /m | 54.663167 | -1.499333 | 55.0 | 10.0 | | | | | UNKNOWN vendor/model | Off Duty | | ! |
| 2026-03-27 | 22:39:29 | 2E0JML | 2E0JML | 75(10/7) | 0 | ` | 2E0JML | /m | 54.730000 | -1.522000 | 17.0 | 305.0 | | | | | UNKNOWN vendor/model | Off Duty | | ) |
| 2026-03-27 | 22:40:00 | 2E0JML | 2E0JML | 75(8/10) | 0 | ` | 2E0JML | /m | 54.728333 | -1.523500 | 7.0 | 61.0 | | | | | UNKNOWN vendor/model | Off Duty | | ) |
| 2026-03-27 | 22:44:30 | 2E0JML | 2E0JML | 75(12/6) | 0 | ` | 2E0JML | /m | 54.728833 | -1.523000 | 5.0 | 187.0 | | | | | UNKNOWN vendor/model | Off Duty | | |
| 2026-03-27 | 22:45:01 | 2E0JML | 2E0JML | 75(13/7) | 0 | ` | 2E0JML | /m | 54.728333 | -1.523333 | 6.0 | 116.0 | | | | | UNKNOWN vendor/model | Off Duty | | ) |
| 2026-03-27 | 22:45:33 | 2E0JML | 2E0JML | 74(7/10) | 0 | ` | 2E0JML | /m | 54.727833 | -1.523167 | 8.0 | 273.0 | | | | | UNKNOWN vendor/model | Off Duty | | ) |
| 2026-03-27 | 22:46:05 | 2E0JML | 2E0JML | 74(7/12) | 0 | ` | 2E0JML | /m | 54.726167 | -1.526000 | 21.0 | 211.0 | | | | | UNKNOWN vendor/model | Off Duty | | ) |
| 2026-03-27 | 22:47:15 | 2E0JML | 2E0JML | 74(11/6) | 0 | ` | 2E0JML | /m | 54.731667 | -1.522167 | 25.0 | 339.0 | | | | | UNKNOWN vendor/model | Off Duty | | ) |
| 2026-03-27 | 22:48:19 | 2E0JML | 2E0JML | 75(8/11) | 0 | ` | 2E0JML | /m | 54.737667 | -1.529000 | 23.0 | 354.0 | | | | | UNKNOWN vendor/model | Off Duty | | |
| 2026-03-28 | 13:00:14 | 2E0JML | 2E0JML | 74(8/12) | 0 | ` | 2E0JML | /m | 54.854667 | -1.758500 | 46.0 | 314.0 | | | | | UNKNOWN vendor/model | Off Duty | | |
| 2026-03-28 | 13:02:25 | 2E0JML | 2E0JML | 75(13/8) | 0 | ` | 2E0JML | /m | 54.866000 | -1.785167 | 14.0 | 245.0 | | | | | UNKNOWN vendor/model | Off Duty | | ) |
| 2026-03-28 | 13:03:19 | 2E0JML | 2E0JML | 75(8/9) | 0 | ` | 2E0JML | /m | 54.862333 | -1.794333 | 18.0 | 201.0 | | | | | UNKNOWN vendor/model | Off Duty | | ! |
| 2026-03-28 | 13:05:09 | 2E0JML | 2E0JML | 75(7/10) | 0 | ` | 2E0JML | /m | 54.854000 | -1.809000 | 47.0 | 284.0 | | | | | UNKNOWN vendor/model | Off Duty | | ) |
| 2026-03-28 | 13:07:23 | 2E0JML | 2E0JML | 75(7/14) | 0 | ` | 2E0JML | /m | 54.854500 | -1.823833 | 7.0 | 306.0 | | | | | UNKNOWN vendor/model | Off Duty | | |
| 2026-03-28 | 13:09:36 | 2E0JML | 2E0JML | 74(8/10) | 0 | ` | 2E0JML | /m | 54.858333 | -1.833667 | 4.0 | 195.0 | | | | | UNKNOWN vendor/model | Off Duty | | |
| 2026-03-28 | 13:10:28 | 2E0JML | 2E0JML | 75(9/12) | 0 | ` | 2E0JML | /m | 54.858167 | -1.833500 | 5.0 | 44.0 | | | | | UNKNOWN vendor/model | Off Duty | | ) |
| 2026-03-28 | 13:17:32 | 2E0JML | 2E0JML | 75(9/11) | 0 | ` | 2E0JML | /m | 54.858667 | -1.833000 | 7.0 | 109.0 | | | | | UNKNOWN vendor/model | Off Duty | | ! |
| 2026-03-28 | 13:20:49 | 2E0JML | 2E0JML | 75(9/12) | 0 | ` | 2E0JML | /m | 54.858333 | -1.817667 | 4.0 | 310.0 | | | | | UNKNOWN vendor/model | Off Duty | | ) |
| 2026-03-28 | 13:24:49 | 2E0JML | 2E0JML | 75(11/8) | 0 | ` | 2E0JML | /m | 54.858500 | -1.817500 | 6.0 | 33.0 | | | | | UNKNOWN vendor/model | Off Duty | | |
| 2026-03-28 | 13:25:35 | 2E0JML | 2E0JML | 75(7/9) | 0 | ` | 2E0JML | /m | 54.857833 | -1.818000 | 5.0 | 202.0 | | | | | UNKNOWN vendor/model | Off Duty | | ) |
| 2026-03-28 | 13:26:07 | 2E0JML | 2E0JML | 75(7/12) | 0 | ` | 2E0JML | /m | 54.857000 | -1.819833 | 13.0 | 261.0 | | | | | UNKNOWN vendor/model | Off Duty | | ) |
| 2026-03-28 | 13:27:39 | 2E0JML | 2E0JML | 75(13/8) | 0 | ` | 2E0JML | /m | 54.851667 | -1.831167 | 7.0 | 320.0 | | | | | UNKNOWN vendor/model | Off Duty | | ! |
| 2026-03-28 | 13:30:39 | 2E0JML | 2E0JML | 75(14/7) | 0 | ` | 2E0JML | /m | 54.851667 | -1.832000 | 4.0 | 230.0 | | | | | UNKNOWN vendor/model | Off Duty | | |
| 2026-03-28 | 13:31:46 | 2E0JML | 2E0JML | 75(14/10) | 0 | ` | 2E0JML | /m | 54.851833 | -1.831667 | 5.0 | 64.0 | | | | | UNKNOWN vendor/model | Off Duty | | ) |
| 2026-03-28 | 13:35:25 | 2E0JML | 2E0JML | 75(8/10) | 0 | ` | 2E0JML | /m | 54.857833 | -1.817833 | 10.0 | 102.0 | | | | | UNKNOWN vendor/model | Off Duty | | ! |
| 2026-03-28 | 13:37:04 | 2E0JML | 2E0JML | 74(8/15) | 0 | ` | 2E0JML | /m | 54.857333 | -1.794000 | 40.0 | 19.0 | | | | | UNKNOWN vendor/model | Off Duty | | ) |
| 2026-03-29 | 16:32:46 | 2E0JML | 2E0JML | 75(8/11) | 0 | ` | 2E0JML | /m | 54.851167 | -1.646500 | 37.0 | 168.0 | | | | | UNKNOWN vendor/model | Off Duty | | |
| 2026-03-30 | 14:54:49 | 2E0JML | 2E0JML | 75(10/8) | 0 | ` | 2E0JML | /m | 54.573333 | -1.269500 | 33.0 | 168.0 | | | | | UNKNOWN vendor/model | Off Duty | | ! |
| 2026-03-30 | 15:06:50 | 2E0JML | 2E0JML | 74(8/14) | 0 | ` | 2E0JML | /m | 54.427167 | -1.320167 | 50.0 | 173.0 | | | | | UNKNOWN vendor/model | Off Duty | | ! |
| 2026-03-30 | 15:11:37 | 2E0JML | 2E0JML | 75(9/10) | 0 | ` | 2E0JML | /m | 54.360167 | -1.323500 | 51.0 | 185.0 | | | | | UNKNOWN vendor/model | Off Duty | | |
| 2026-03-30 | 16:54:19 | 2E0JML | 2E0JML | 74(7/11) | 0 | ` | 2E0JML | /m | 54.328667 | -1.337667 | 48.0 | 11.0 | | | | | UNKNOWN vendor/model | Off Duty | | ! |
| 2026-03-30 | 17:01:53 | 2E0JML | 2E0JML | 75(9/9) | 0 | ` | 2E0JML | /m | 54.433333 | -1.323167 | 55.0 | 343.0 | | | | | UNKNOWN vendor/model | Off Duty | | |
| 2026-03-30 | 17:04:55 | 2E0JML | 2E0JML | 75(11/8) | 0 | ` | 2E0JML | /m | 54.475833 | -1.320333 | 52.0 | 32.0 | | | | | UNKNOWN vendor/model | Off Duty | | ! |
| 2026-03-30 | 17:07:15 | 2E0JML | 2E0JML | 74(7/9) | 0 | ` | 2E0JML | /m | 54.503667 | -1.291167 | 51.0 | 15.0 | | | | | UNKNOWN vendor/model | Off Duty | | |
| 2026-03-30 | 17:09:38 | 2E0JML | 2E0JML | 74(13/8) | 0 | ` | 2E0JML | /m | 54.535833 | -1.279000 | 50.0 | 7.0 | | | | | UNKNOWN vendor/model | Off Duty | | ) |
| 2026-03-30 | 17:12:03 | 2E0JML | 2E0JML | 75(8/10) | 0 | ` | 2E0JML | /m | 54.567167 | -1.267667 | 38.0 | 346.0 | | | | | UNKNOWN vendor/model | Off Duty | | ! |
| 2026-03-30 | 17:32:56 | 2E0JML | 2E0JML | 75(8/12) | 0 | ` | 2E0JML | /m | 54.752667 | -1.474833 | 47.0 | 276.0 | | | | | UNKNOWN vendor/model | Off Duty | | |
| 2026-03-30 | 17:33:37 | 2E0JML | 2E0JML | 75(11/7) | 0 | ` | 2E0JML | /m | 54.756833 | -1.486000 | 45.0 | 309.0 | | | | | UNKNOWN vendor/model | Off Duty | | ! |
| 2026-03-30 | 17:34:46 | 2E0JML | 2E0JML | 75(10/13) | 0 | ` | 2E0JML | /m | 54.762833 | -1.504833 | 18.0 | 250.0 | | | | | UNKNOWN vendor/model | Off Duty | | ) |
| 2026-03-30 | 17:35:17 | 2E0JML | 2E0JML | 75(9/7) | 0 | ` | 2E0JML | /m | 54.763000 | -1.512333 | 40.0 | 297.0 | | | | | UNKNOWN vendor/model | Off Duty | | ) |
| 2026-03-30 | 17:36:23 | 2E0JML | 2E0JML | 74(8/11) | 0 | ` | 2E0JML | /m | 54.765667 | -1.532500 | 39.0 | 246.0 | | | | | UNKNOWN vendor/model | Off Duty | | ) |
| 2026-03-30 | 17:45:38 | 2E0JML | 2E0JML | 75(12/8) | 0 | ` | 2E0JML | /m | 54.771667 | -1.595167 | 23.0 | 219.0 | | | | | UNKNOWN vendor/model | Off Duty | | ! |
| 2026-03-30 | 17:52:23 | 2E0JML | 2E0JML | 75(7/12) | 0 | ` | 2E0JML | /m | 54.780000 | -1.678833 | 44.0 | 242.0 | | | | | UNKNOWN vendor/model | Off Duty | | |
| 2026-03-30 | 17:55:07 | 2E0JML | 2E0JML | 75(8/11) | 0 | ` | 2E0JML | /m | 54.770667 | -1.703333 | 0.0 | 227.0 | | | | | UNKNOWN vendor/model | Off Duty | | |
| 2026-03-30 | 18:25:06 | 2E0JML | 2E0JML | 75(13/6) | 0 | ` | 2E0JML | /m | 54.770000 | -1.703500 | 0.0 | 123.0 | | | | | UNKNOWN vendor/model | Off Duty | | ! |
| 2026-03-30 | 18:26:58 | 2E0JML | 2E0JML | 75(8/9) | 0 | ` | 2E0JML | /m | 54.770000 | -1.703667 | 7.0 | 207.0 | | | | | UNKNOWN vendor/model | Off Duty | | |
| 2026-03-30 | 18:27:30 | 2E0JML | 2E0JML | 75(7/11) | 0 | ` | 2E0JML | /m | 54.771000 | -1.705333 | 21.0 | 336.0 | | | | | UNKNOWN vendor/model | Off Duty | | ) |
| 2026-03-30 | 18:28:02 | 2E0JML | 2E0JML | 75(6/10) | 0 | ` | 2E0JML | /m | 54.773500 | -1.706167 | 7.0 | 95.0 | | | | | UNKNOWN vendor/model | Off Duty | | ) |
| 2026-03-30 | 18:32:02 | 2E0JML | 2E0JML | 75(7/9) | 0 | ` | 2E0JML | /m | 54.786667 | -1.668667 | 9.0 | 299.0 | | | | | UNKNOWN vendor/model | Off Duty | | |
| 2026-03-30 | 18:32:34 | 2E0JML | 2E0JML | 75(7/11) | 0 | ` | 2E0JML | /m | 54.789333 | -1.669500 | 24.0 | 2.0 | | | | | UNKNOWN vendor/model | Off Duty | | ) |
| 2026-03-30 | 18:33:16 | 2E0JML | 2E0JML | 75(8/11) | 0 | ` | 2E0JML | /m | 54.793500 | -1.669000 | 16.0 | 48.0 | | | | | UNKNOWN vendor/model | Off Duty | | ! |
| 2026-03-30 | 18:39:42 | 2E0JML | 2E0JML | 75(7/9) | 0 | ` | 2E0JML | /m | 54.806500 | -1.636000 | 20.0 | 59.0 | | | | | UNKNOWN vendor/model | Off Duty | | ) |
| 2026-03-30 | 18:41:08 | 2E0JML | 2E0JML | 74(12/13) | 0 | ` | 2E0JML | /m | 54.815000 | -1.631833 | 24.0 | 53.0 | | | | | UNKNOWN vendor/model | Off Duty | | |
| 2026-03-30 | 19:13:02 | 2E0JML | 2E0JML | 75(10/8) | 0 | ` | 2E0JML | /m | 54.849833 | -1.646167 | 35.0 | 348.0 | | | | | UNKNOWN vendor/model | Off Duty | | |
| 2026-04-03 | 13:46:11 | 2E0JML | 2E0JML | 75(10/15) | 0 | ` | 2E0JML | /m | 54.873333 | -1.667333 | 0.0 | | | | | | UNKNOWN vendor/model | Off Duty | | ! |
| 2026-04-03 | 13:50:36 | 2E0JML | 2E0JML | 75(10/8) | 0 | ` | 2E0JML | /m | 54.874167 | -1.671333 | 5.0 | 26.0 | | | | | UNKNOWN vendor/model | Off Duty | | |
| 2026-04-03 | 13:59:13 | 2E0JML | 2E0JML | 75(8/10) | 0 | ` | 2E0JML | /m | 54.867167 | -1.639833 | 21.0 | 176.0 | | | | | UNKNOWN vendor/model | Off Duty | | |
| 2026-04-03 | 14:01:38 | 2E0JML | 2E0JML | 75(7/12) | 0 | ` | 2E0JML | /m | 54.851833 | -1.646833 | 26.0 | 177.0 | | | | | UNKNOWN vendor/model | Off Duty | | ) |
| 2026-04-03 | 14:06:21 | 2E0JML | 2E0JML | 74(13/7) | 0 | ` | 2E0JML | /m | 54.837333 | -1.632833 | 0.0 | 13.0 | | | | | UNKNOWN vendor/model | Off Duty | | ! |
| 2026-04-03 | 14:36:22 | 2E0JML | 2E0JML | 75(10/9) | 0 | ` | 2E0JML | /m | 54.837333 | -1.632833 | 0.0 | 117.0 | | | | | UNKNOWN vendor/model | Off Duty | | ! |
| 2026-04-03 | 15:43:46 | 2E0JML | 2E0JML | 75(10/8) | 0 | ` | 2E0JML | /m | 54.852167 | -1.646833 | 34.0 | 1.0 | | | | | UNKNOWN vendor/model | Off Duty | | ! |
| 2026-04-04 | 15:55:44 | 2E0JML | 2E0JML | 74(11/11) | 0 | ` | 2E0JML | /m | 54.872000 | -1.643000 | 10.0 | 144.0 | | | | | UNKNOWN vendor/model | Off Duty | | |
| 2026-04-04 | 15:56:33 | 2E0JML | 2E0JML | 75(11/8) | 0 | ` | 2E0JML | /m | 54.867000 | -1.639833 | 29.0 | 180.0 | | | | | UNKNOWN vendor/model | Off Duty | | ) |
| 2026-04-05 | 17:47:15 | 2E0JML | 2E0JML | 75(11/7) | 0 | ` | 2E0JML | /m | 54.751500 | -1.521167 | 32.0 | 159.0 | | | | | UNKNOWN vendor/model | Off Duty | | ! |
| 2026-04-05 | 17:50:50 | 2E0JML | 2E0JML | 75(10/8) | 0 | ` | 2E0JML | /m | 54.719167 | -1.520667 | 46.0 | 163.0 | | | | | UNKNOWN vendor/model | Off Duty | | ) |
| 2026-04-05 | 18:03:11 | 2E0JML | 2E0JML | 75(10/9) | 0 | ` | 2E0JML | /m | 54.567167 | -1.581833 | 52.0 | 216.0 | | | | | UNKNOWN vendor/model | Off Duty | | ! |
| 2026-04-05 | 18:05:32 | 2E0JML | 2E0JML | 74(11/8) | 0 | ` | 2E0JML | /m | 54.537000 | -1.609833 | 51.0 | 200.0 | | | | | UNKNOWN vendor/model | Off Duty | | ! |
| 2026-04-05 | 18:07:12 | 2E0JML | 2E0JML | 75(11/9) | 0 | ` | 2E0JML | /m | 54.515500 | -1.621500 | 48.0 | 166.0 | | | | | UNKNOWN vendor/model | Off Duty | | ) |
| 2026-04-05 | 18:11:32 | 2E0JML | 2E0JML | 75(7/10) | 0 | ` | 2E0JML | /m | 54.464333 | -1.668167 | 49.0 | 193.0 | | | | | UNKNOWN vendor/model | Off Duty | | |
| 2026-04-05 | 18:21:05 | 2E0JML | 2E0JML | 74(11/7) | 0 | ` | 2E0JML | /m | 54.335833 | -1.592667 | 51.0 | 150.0 | | | | | UNKNOWN vendor/model | Off Duty | | ! |
| 2026-05-01 | 22:13:32 | 2E0JML | 2E0JML | 75(8/10) | 0 | ` | 2E0JML | /m | 54.350000 | -1.608500 | 53.0 | 325.0 | | | | | UNKNOWN vendor/model | Off Duty | | ! |
| 2026-05-01 | 22:22:17 | 2E0JML | 2E0JML | 75(8/9) | 0 | ` | 2E0JML | /m | 54.465333 | -1.668000 | 56.0 | 15.0 | | | | | UNKNOWN vendor/model | Off Duty | | ! |
| 2026-05-01 | 22:27:55 | 2E0JML | 2E0JML | 75(9/9) | 0 | ` | 2E0JML | /m | 54.539833 | -1.608167 | 56.0 | 21.0 | | | | | UNKNOWN vendor/model | Off Duty | | |
| 2026-05-01 | 22:30:05 | 2E0JML | 2E0JML | 75(8/8) | 0 | ` | 2E0JML | /m | 54.567000 | -1.582333 | 52.0 | 36.0 | | | | | UNKNOWN vendor/model | Off Duty | | ! |
| 2026-05-01 | 22:32:24 | 2E0JML | 2E0JML | 75(10/7) | 0 | ` | 2E0JML | /m | 54.593500 | -1.546000 | 53.0 | 42.0 | | | | | UNKNOWN vendor/model | Off Duty | | ) |
| 2026-05-01 | 22:34:41 | 2E0JML | 2E0JML | 75(9/9) | 0 | ` | 2E0JML | /m | 54.624833 | -1.527167 | 49.0 | 17.0 | | | | | UNKNOWN vendor/model | Off Duty | | ) |
| 2026-05-01 | 22:37:08 | 2E0JML | 2E0JML | 75(12/9) | 0 | ` | 2E0JML | /m | 54.657000 | -1.504500 | 50.0 | 41.0 | | | | | UNKNOWN vendor/model | Off Duty | | |
| 2026-05-01 | 22:37:40 | 2E0JML | 2E0JML | 75(11/8) | 0 | ` | 2E0JML | /m | 54.663833 | -1.499167 | 52.0 | 8.0 | | | | | UNKNOWN vendor/model | Off Duty | | ) |
| 2026-05-01 | 22:40:33 | 2E0JML | 2E0JML | 75(8/8) | 0 | ` | 2E0JML | /m | 54.705667 | -1.503667 | 58.0 | 325.0 | | | | | UNKNOWN vendor/model | Off Duty | | ! |
| 2026-05-01 | 22:44:08 | 2E0JML | 2E0JML | 74(11/10) | 0 | ` | 2E0JML | /m | 54.755667 | -1.524333 | 58.0 | 339.0 | | | | | UNKNOWN vendor/model | Off Duty | | |
| 2026-05-01 | 22:59:43 | 2E0JML | 2E0JML | 74(9/9) | 0 | ` | 2E0JML | /m | 54.841167 | -1.614333 | 29.0 | 208.0 | | | | | UNKNOWN vendor/model | Off Duty | | ! |
| 2026-05-01 | 23:00:40 | 2E0JML | 2E0JML | 74(10/9) | 0 | ` | 2E0JML | /m | 54.835667 | -1.626500 | 33.0 | 248.0 | | | | | UNKNOWN vendor/model | Off Duty | | ) |